Capitol Logistics 7348

Operating for MZN



KONT
Ontario International Airport
Ontario, California
KILN
Wilmington Air Park
Wilmington, Ohio

Activity Log

Date Flight Route Aircraft Duration
No Flights Yet

Route Details

Aircraft Information
Primary: Boeing 767-300BDSF
Backup: Boeing 757-200SF
Route Data
Distance: 1899nm
Duration: 3h 29m
Recm'd Route: RAJEE3 AVRRY LANCY J134 DRK J134 CIM J96 IRK SPI J80 VHP RID
Origin Wx: KONT 180153Z 26010KT 10SM FEW120 22/09 A2990 RMK AO2 SLP117 T02220089
Dest. Wx: KILN 180154Z AUTO 24004KT 10SM CLR 09/05 A2991 RMK AO2 SLP139 T00890050
Notes: